createdAt,value
2022-11-05T00:00:27.663Z,1006.68
2022-11-05T00:01:27.704Z,1006.69
2022-11-05T00:02:27.638Z,1006.67
2022-11-05T00:03:27.664Z,1006.65
2022-11-05T00:04:30.970Z,1006.74
2022-11-05T00:05:27.563Z,1006.68
2022-11-05T00:06:27.539Z,1006.67
2022-11-05T00:07:27.524Z,1006.65
2022-11-05T00:08:27.497Z,1006.63
2022-11-05T00:09:27.507Z,1006.63
2022-11-05T00:10:27.458Z,1006.65
2022-11-05T00:11:27.439Z,1006.64
2022-11-05T00:12:27.417Z,1006.62
2022-11-05T00:13:27.398Z,1006.64
2022-11-05T00:14:27.373Z,1006.67
2022-11-05T00:15:27.366Z,1006.67
2022-11-05T00:16:27.333Z,1006.70
2022-11-05T00:17:27.314Z,1006.71
2022-11-05T00:18:27.290Z,1006.74
2022-11-05T00:19:27.279Z,1006.72
2022-11-05T00:20:27.252Z,1006.72
2022-11-05T00:21:27.244Z,1006.73
2022-11-05T00:22:27.211Z,1006.77
2022-11-05T00:23:27.190Z,1006.78
2022-11-05T00:24:27.171Z,1006.76
2022-11-05T00:25:27.172Z,1006.73
2022-11-05T00:26:27.128Z,1006.76
2022-11-05T00:27:27.106Z,1006.79
2022-11-05T00:28:27.093Z,1006.78
2022-11-05T00:29:27.067Z,1006.77
2022-11-05T00:30:27.046Z,1006.78
2022-11-05T00:31:27.024Z,1006.81
2022-11-05T00:32:27.007Z,1006.83
2022-11-05T00:33:26.985Z,1006.87
2022-11-05T00:34:26.967Z,1006.89
2022-11-05T00:35:26.946Z,1006.93
2022-11-05T00:36:26.922Z,1006.90
2022-11-05T00:37:26.911Z,1006.94
2022-11-05T00:38:26.884Z,1006.94
2022-11-05T00:39:26.875Z,1006.95
2022-11-05T00:40:26.844Z,1006.97
2022-11-05T00:41:26.906Z,1006.92
2022-11-05T00:42:26.810Z,1006.96
2022-11-05T00:43:26.780Z,1006.97
2022-11-05T00:44:26.767Z,1006.98
2022-11-05T00:45:26.761Z,1006.99
2022-11-05T00:46:26.721Z,1007.01
2022-11-05T00:47:26.699Z,1006.99
2022-11-05T00:48:26.677Z,1007.04
2022-11-05T00:49:26.656Z,1006.98
2022-11-05T00:50:26.639Z,1006.98
2022-11-05T00:51:26.614Z,1006.98
2022-11-05T00:52:26.590Z,1007.04
2022-11-05T00:53:26.570Z,1006.99
2022-11-05T00:54:26.549Z,1007.00
2022-11-05T00:55:26.534Z,1007.01
2022-11-05T00:56:26.506Z,1007.03
2022-11-05T00:57:26.510Z,1007.05
2022-11-05T00:58:26.479Z,1007.01
2022-11-05T00:59:26.448Z,1007.03
2022-11-05T01:00:26.456Z,1007.05
2022-11-05T01:01:26.540Z,1007.03
2022-11-05T01:02:26.546Z,1007.03
2022-11-05T01:03:26.366Z,1007.05
2022-11-05T01:04:26.343Z,1007.08
2022-11-05T01:05:26.322Z,1007.11
2022-11-05T01:06:26.301Z,1007.14
2022-11-05T01:07:26.288Z,1007.16
2022-11-05T01:08:26.257Z,1007.16
2022-11-05T01:09:26.237Z,1007.19
2022-11-05T01:10:26.218Z,1007.20
2022-11-05T01:11:26.195Z,1007.17
2022-11-05T01:12:26.178Z,1007.17
2022-11-05T01:13:26.173Z,1007.11
2022-11-05T01:14:26.136Z,1007.16
2022-11-05T01:15:26.116Z,1007.14
2022-11-05T01:16:26.090Z,1007.13
2022-11-05T01:17:26.070Z,1007.19
2022-11-05T01:18:26.051Z,1007.15
2022-11-05T01:19:26.028Z,1007.15
2022-11-05T01:20:26.008Z,1007.18
2022-11-05T01:21:25.986Z,1007.21
2022-11-05T01:22:25.967Z,1007.22
2022-11-05T01:23:25.947Z,1007.20
2022-11-05T01:24:25.936Z,1007.17
2022-11-05T01:25:25.904Z,1007.19
2022-11-05T01:26:25.883Z,1007.18
2022-11-05T01:27:25.859Z,1007.17
2022-11-05T01:28:25.921Z,1007.18
2022-11-05T01:29:25.842Z,1007.22
2022-11-05T01:30:25.805Z,1007.23
2022-11-05T01:31:25.776Z,1007.23
2022-11-05T01:32:25.763Z,1007.20
2022-11-05T01:33:25.736Z,1007.20
2022-11-05T01:34:25.717Z,1007.19
2022-11-05T01:35:25.695Z,1007.20
2022-11-05T01:36:25.671Z,1007.22
2022-11-05T01:37:25.649Z,1007.22
2022-11-05T01:38:25.631Z,1007.18
2022-11-05T01:39:25.612Z,1007.22
2022-11-05T01:40:25.589Z,1007.19
2022-11-05T01:41:25.571Z,1007.22
2022-11-05T01:42:25.547Z,1007.23
2022-11-05T01:43:25.524Z,1007.24
2022-11-05T01:44:25.507Z,1007.26
2022-11-05T01:45:25.505Z,1007.31
2022-11-05T01:46:25.463Z,1007.30
2022-11-05T01:47:25.442Z,1007.32
2022-11-05T01:48:25.420Z,1007.34
2022-11-05T01:49:25.402Z,1007.36
2022-11-05T01:50:25.376Z,1007.39
2022-11-05T01:51:25.358Z,1007.40
2022-11-05T01:52:25.342Z,1007.38
2022-11-05T01:53:25.317Z,1007.39
2022-11-05T01:54:25.295Z,1007.37
2022-11-05T01:55:25.273Z,1007.39
2022-11-05T01:56:25.257Z,1007.39
2022-11-05T01:57:25.237Z,1007.38
2022-11-05T01:58:25.211Z,1007.39
2022-11-05T01:59:25.191Z,1007.37
2022-11-05T02:00:25.170Z,1007.40
2022-11-05T02:01:25.278Z,1007.40
2022-11-05T02:02:25.364Z,1007.43
2022-11-05T02:03:25.106Z,1007.41
2022-11-05T02:04:25.082Z,1007.42
2022-11-05T02:05:25.071Z,1007.44
2022-11-05T02:06:25.040Z,1007.45
2022-11-05T02:07:25.021Z,1007.45
2022-11-05T02:08:24.999Z,1007.47
2022-11-05T02:09:24.987Z,1007.46
2022-11-05T02:10:24.954Z,1007.50
2022-11-05T02:11:24.940Z,1007.54
2022-11-05T02:12:24.917Z,1007.53
2022-11-05T02:13:24.899Z,1007.55
2022-11-05T02:14:24.870Z,1007.55
2022-11-05T02:15:24.848Z,1007.58
2022-11-05T02:16:24.827Z,1007.55
2022-11-05T02:17:24.910Z,1007.58
2022-11-05T02:18:24.784Z,1007.60
2022-11-05T02:19:24.765Z,1007.62
2022-11-05T02:20:24.742Z,1007.65
2022-11-05T02:21:24.720Z,1007.64
2022-11-05T02:22:24.701Z,1007.65
2022-11-05T02:23:24.684Z,1007.66
2022-11-05T02:24:24.659Z,1007.65
2022-11-05T02:25:24.634Z,1007.63
2022-11-05T02:26:24.614Z,1007.61
2022-11-05T02:27:24.592Z,1007.63
2022-11-05T02:28:24.571Z,1007.62
2022-11-05T02:29:24.554Z,1007.66
2022-11-05T02:30:24.534Z,1007.67
2022-11-05T02:31:24.507Z,1007.67
2022-11-05T02:32:24.491Z,1007.71
2022-11-05T02:33:24.485Z,1007.70
2022-11-05T02:34:24.446Z,1007.73
2022-11-05T02:35:24.425Z,1007.79
2022-11-05T02:36:24.405Z,1007.80
2022-11-05T02:37:24.387Z,1007.73
2022-11-05T02:38:24.367Z,1007.71
2022-11-05T02:39:24.337Z,1007.73
2022-11-05T02:40:24.311Z,1007.73
2022-11-05T02:41:24.297Z,1007.76
2022-11-05T02:42:24.267Z,1007.74
2022-11-05T02:43:24.250Z,1007.75
2022-11-05T02:44:24.230Z,1007.74
2022-11-05T02:45:24.210Z,1007.75
2022-11-05T02:46:24.185Z,1007.73
2022-11-05T02:47:24.162Z,1007.77
2022-11-05T02:48:24.140Z,1007.72
2022-11-05T02:49:24.140Z,1007.71
2022-11-05T02:50:24.101Z,1007.70
2022-11-05T02:51:24.226Z,1007.70
2022-11-05T02:52:24.059Z,1007.74
2022-11-05T02:53:24.041Z,1007.72
2022-11-05T02:54:24.015Z,1007.72
2022-11-05T02:55:23.993Z,1007.72
2022-11-05T02:56:23.972Z,1007.73
2022-11-05T02:57:23.952Z,1007.71
2022-11-05T02:58:23.924Z,1007.73
2022-11-05T02:59:23.903Z,1007.78
2022-11-05T03:00:23.888Z,1007.75
2022-11-05T03:01:23.995Z,1007.72
2022-11-05T03:02:23.912Z,1007.73
2022-11-05T03:03:23.820Z,1007.74
2022-11-05T03:04:23.799Z,1007.74
2022-11-05T03:05:23.796Z,1007.74
2022-11-05T03:06:23.757Z,1007.72
2022-11-05T03:07:23.738Z,1007.70
2022-11-05T03:08:23.714Z,1007.74
2022-11-05T03:09:23.692Z,1007.71
2022-11-05T03:10:23.672Z,1007.74
2022-11-05T03:11:23.650Z,1007.76
2022-11-05T03:12:23.624Z,1007.74
2022-11-05T03:13:23.610Z,1007.79
2022-11-05T03:14:23.586Z,1007.77
2022-11-05T03:15:23.561Z,1007.74
2022-11-05T03:16:23.539Z,1007.71
2022-11-05T03:17:23.515Z,1007.75
2022-11-05T03:18:23.494Z,1007.74
2022-11-05T03:19:23.475Z,1007.71
2022-11-05T03:20:23.455Z,1007.71
2022-11-05T03:21:23.459Z,1007.70
2022-11-05T03:22:23.408Z,1007.74
2022-11-05T03:23:23.396Z,1007.78
2022-11-05T03:24:23.367Z,1007.82
2022-11-05T03:25:23.343Z,1007.81
2022-11-05T03:26:23.322Z,1007.78
2022-11-05T03:27:23.300Z,1007.82
2022-11-05T03:28:23.278Z,1007.85
2022-11-05T03:29:23.256Z,1007.81
2022-11-05T03:30:23.234Z,1007.84
2022-11-05T03:31:23.214Z,1007.81
2022-11-05T03:32:23.196Z,1007.82
2022-11-05T03:33:23.174Z,1007.80
2022-11-05T03:34:23.148Z,1007.82
2022-11-05T03:35:23.127Z,1007.83
2022-11-05T03:36:23.105Z,1007.87
2022-11-05T03:37:23.107Z,1007.88
2022-11-05T03:38:23.069Z,1007.88
2022-11-05T03:39:23.042Z,1007.88
2022-11-05T03:40:23.019Z,1007.87
2022-11-05T03:41:22.997Z,1007.85
2022-11-05T03:42:22.974Z,1007.83
2022-11-05T03:43:22.960Z,1007.84
2022-11-05T03:44:22.929Z,1007.85
2022-11-05T03:45:22.915Z,1007.90
2022-11-05T03:46:22.891Z,1007.88
2022-11-05T03:47:22.871Z,1007.85
2022-11-05T03:48:22.921Z,1007.81
2022-11-05T03:49:22.824Z,1007.83
2022-11-05T03:50:22.798Z,1007.85
2022-11-05T03:51:22.782Z,1007.85
2022-11-05T03:52:22.762Z,1007.87
2022-11-05T03:53:22.761Z,1007.85
2022-11-05T03:54:22.712Z,1007.85
2022-11-05T03:55:22.697Z,1007.87
2022-11-05T03:56:22.672Z,1007.89
2022-11-05T03:57:22.649Z,1007.88
2022-11-05T03:58:22.630Z,1007.88
2022-11-05T03:59:22.611Z,1007.89
2022-11-05T04:00:22.586Z,1007.91
2022-11-05T04:01:22.716Z,1007.94
2022-11-05T04:02:22.662Z,1007.97
2022-11-05T04:03:22.523Z,1007.95
2022-11-05T04:04:22.498Z,1007.97
2022-11-05T04:05:22.476Z,1007.98
2022-11-05T04:06:22.457Z,1008.00
2022-11-05T04:07:22.438Z,1007.99
2022-11-05T04:08:22.412Z,1007.96
2022-11-05T04:09:22.418Z,1007.99
2022-11-05T04:10:22.362Z,1007.98
2022-11-05T04:11:22.344Z,1007.96
2022-11-05T04:12:22.321Z,1007.96
2022-11-05T04:13:22.302Z,1007.99
2022-11-05T04:14:22.283Z,1008.00
2022-11-05T04:15:22.261Z,1008.01
2022-11-05T04:16:22.234Z,1008.01
2022-11-05T04:17:22.213Z,1008.05
2022-11-05T04:18:22.190Z,1008.05
2022-11-05T04:19:26.107Z,1008.04
2022-11-05T04:20:22.147Z,1008.06
2022-11-05T04:21:22.126Z,1008.09
2022-11-05T04:22:22.103Z,1008.08
2022-11-05T04:23:22.087Z,1008.09
2022-11-05T04:24:22.066Z,1008.12
2022-11-05T04:25:22.157Z,1008.13
2022-11-05T04:26:22.016Z,1008.09
2022-11-05T04:27:21.993Z,1008.09
2022-11-05T04:28:21.970Z,1008.15
2022-11-05T04:29:21.947Z,1008.14
2022-11-05T04:30:22.032Z,1008.18
2022-11-05T04:31:21.906Z,1008.17
2022-11-05T04:32:21.882Z,1008.19
2022-11-05T04:33:21.866Z,1008.20
2022-11-05T04:34:21.838Z,1008.21
2022-11-05T04:35:21.825Z,1008.22
2022-11-05T04:36:21.796Z,1008.21
2022-11-05T04:37:21.773Z,1008.23
2022-11-05T04:38:21.750Z,1008.19
2022-11-05T04:39:21.734Z,1008.17
2022-11-05T04:40:21.710Z,1008.16
2022-11-05T04:41:21.844Z,1008.19
2022-11-05T04:42:21.666Z,1008.17
2022-11-05T04:43:22.113Z,1008.20
2022-11-05T04:44:21.620Z,1008.21
2022-11-05T04:45:21.601Z,1008.23
2022-11-05T04:46:21.579Z,1008.23
2022-11-05T04:47:21.553Z,1008.20
2022-11-05T04:48:21.532Z,1008.23
2022-11-05T04:49:21.515Z,1008.26
2022-11-05T04:50:21.495Z,1008.24
2022-11-05T04:51:21.467Z,1008.24
2022-11-05T04:52:21.443Z,1008.25
2022-11-05T04:53:21.421Z,1008.28
2022-11-05T04:54:21.402Z,1008.26
2022-11-05T04:55:21.381Z,1008.25
2022-11-05T04:56:21.365Z,1008.23
2022-11-05T04:57:21.351Z,1008.22
2022-11-05T04:58:21.308Z,1008.25
2022-11-05T04:59:21.293Z,1008.27
2022-11-05T05:00:21.269Z,1008.27
2022-11-05T05:01:21.435Z,1008.27
2022-11-05T05:02:21.294Z,1008.25
2022-11-05T05:03:21.206Z,1008.29
2022-11-05T05:04:21.193Z,1008.26
2022-11-05T05:05:21.177Z,1008.25
2022-11-05T05:06:21.136Z,1008.23
2022-11-05T05:07:21.113Z,1008.21
2022-11-05T05:08:21.092Z,1008.23
2022-11-05T05:09:21.068Z,1008.24
2022-11-05T05:10:21.041Z,1008.28
2022-11-05T05:11:21.036Z,1008.31
2022-11-05T05:12:21.002Z,1008.26
2022-11-05T05:13:20.998Z,1008.26
2022-11-05T05:14:20.965Z,1008.26
2022-11-05T05:15:20.936Z,1008.28
2022-11-05T05:16:20.914Z,1008.27
2022-11-05T05:17:20.890Z,1008.25
2022-11-05T05:18:20.869Z,1008.26
2022-11-05T05:19:20.845Z,1008.32
2022-11-05T05:20:20.827Z,1008.30
2022-11-05T05:21:20.807Z,1008.26
2022-11-05T05:22:20.779Z,1008.24
2022-11-05T05:23:20.758Z,1008.26
2022-11-05T05:24:20.734Z,1008.27
2022-11-05T05:25:20.712Z,1008.33
2022-11-05T05:26:20.685Z,1008.37
2022-11-05T05:27:20.667Z,1008.43
2022-11-05T05:28:20.645Z,1008.38
2022-11-05T05:29:20.642Z,1008.40
2022-11-05T05:30:20.597Z,1008.40
2022-11-05T05:31:20.577Z,1008.43
2022-11-05T05:32:20.558Z,1008.47
2022-11-05T05:33:20.533Z,1008.47
2022-11-05T05:34:20.536Z,1008.45
2022-11-05T05:35:20.489Z,1008.48
2022-11-05T05:36:20.467Z,1008.47
2022-11-05T05:37:20.443Z,1008.51
2022-11-05T05:38:20.419Z,1008.52
2022-11-05T05:39:20.400Z,1008.55
2022-11-05T05:40:20.388Z,1008.57
2022-11-05T05:41:20.360Z,1008.59
2022-11-05T05:42:20.331Z,1008.59
2022-11-05T05:43:20.310Z,1008.57
2022-11-05T05:44:20.287Z,1008.59
2022-11-05T05:45:20.373Z,1008.60
2022-11-05T05:46:20.245Z,1008.61
2022-11-05T05:47:20.223Z,1008.62
2022-11-05T05:48:20.196Z,1008.63
2022-11-05T05:49:20.177Z,1008.63
2022-11-05T05:50:20.157Z,1008.62
2022-11-05T05:51:20.139Z,1008.63
2022-11-05T05:52:20.111Z,1008.59
2022-11-05T05:53:20.085Z,1008.65
2022-11-05T05:54:20.065Z,1008.64
2022-11-05T05:55:20.044Z,1008.66
2022-11-05T05:56:20.018Z,1008.70
2022-11-05T05:57:19.997Z,1008.70
2022-11-05T05:58:19.971Z,1008.72
2022-11-05T05:59:19.955Z,1008.76
2022-11-05T06:00:19.932Z,1008.76
2022-11-05T06:01:20.405Z,1008.75
2022-11-05T06:02:20.064Z,1008.77
2022-11-05T06:03:19.863Z,1008.75
2022-11-05T06:04:19.842Z,1008.77
2022-11-05T06:05:19.817Z,1008.78
2022-11-05T06:06:19.950Z,1008.80
2022-11-05T06:07:19.777Z,1008.81
2022-11-05T06:08:19.756Z,1008.83
2022-11-05T06:09:19.727Z,1008.86
2022-11-05T06:10:19.737Z,1008.85
2022-11-05T06:11:19.689Z,1008.89
2022-11-05T06:12:19.662Z,1008.92
2022-11-05T06:13:19.641Z,1008.92
2022-11-05T06:14:19.621Z,1008.93
2022-11-05T06:15:19.605Z,1008.90
2022-11-05T06:16:19.580Z,1008.90
2022-11-05T06:17:19.577Z,1008.94
2022-11-05T06:18:19.529Z,1008.94
2022-11-05T06:19:19.505Z,1008.98
2022-11-05T06:20:19.491Z,1008.98
2022-11-05T06:21:19.559Z,1008.97
2022-11-05T06:22:19.443Z,1008.99
2022-11-05T06:23:19.418Z,1008.99
2022-11-05T06:24:19.395Z,1008.95
2022-11-05T06:25:19.369Z,1008.97
2022-11-05T06:26:19.349Z,1008.98
2022-11-05T06:27:19.328Z,1009.00
2022-11-05T06:28:19.325Z,1009.01
2022-11-05T06:29:19.288Z,1009.04
2022-11-05T06:30:19.266Z,1009.03
2022-11-05T06:31:19.249Z,1009.06
2022-11-05T06:32:19.222Z,1009.08
2022-11-05T06:33:19.216Z,1009.09
2022-11-05T06:34:19.172Z,1009.05
2022-11-05T06:35:19.147Z,1009.13
2022-11-05T06:36:19.148Z,1009.10
2022-11-05T06:37:19.103Z,1009.14
2022-11-05T06:38:19.080Z,1009.14
2022-11-05T06:39:19.060Z,1009.11
2022-11-05T06:40:19.033Z,1009.11
2022-11-05T06:41:19.013Z,1009.11
2022-11-05T06:42:19.591Z,1009.14
2022-11-05T06:43:18.976Z,1009.19
2022-11-05T06:44:18.944Z,1009.14
2022-11-05T06:45:18.925Z,1009.10
2022-11-05T06:46:18.901Z,1009.13
2022-11-05T06:47:18.883Z,1009.14
2022-11-05T06:48:18.855Z,1009.19
2022-11-05T06:49:18.852Z,1009.20
2022-11-05T06:50:18.810Z,1009.23
2022-11-05T06:51:18.787Z,1009.27
2022-11-05T06:52:18.766Z,1009.28
2022-11-05T06:53:18.738Z,1009.33
2022-11-05T06:54:18.718Z,1009.34
2022-11-05T06:55:18.702Z,1009.36
2022-11-05T06:56:18.677Z,1009.30
2022-11-05T06:57:18.656Z,1009.37
2022-11-05T06:58:18.647Z,1009.35
2022-11-05T06:59:18.612Z,1009.37
2022-11-05T07:00:18.588Z,1009.38
2022-11-05T07:01:18.692Z,1009.36
2022-11-05T07:02:18.596Z,1009.37
2022-11-05T07:03:18.519Z,1009.39
2022-11-05T07:04:18.499Z,1009.36
2022-11-05T07:05:18.495Z,1009.37
2022-11-05T07:06:18.462Z,1009.36
2022-11-05T07:07:18.430Z,1009.41
2022-11-05T07:08:18.408Z,1009.40
2022-11-05T07:09:18.381Z,1009.40
2022-11-05T07:10:18.362Z,1009.40
2022-11-05T07:11:18.337Z,1009.40
2022-11-05T07:12:18.314Z,1009.42
2022-11-05T07:13:18.301Z,1009.42
2022-11-05T07:14:18.273Z,1009.47
2022-11-05T07:15:18.257Z,1009.45
2022-11-05T07:16:18.227Z,1009.52
2022-11-05T07:17:18.214Z,1009.52
2022-11-05T07:18:18.195Z,1009.53
2022-11-05T07:19:18.161Z,1009.58
2022-11-05T07:20:18.141Z,1009.56
2022-11-05T07:21:18.135Z,1009.58
2022-11-05T07:22:18.094Z,1009.53
2022-11-05T07:23:18.083Z,1009.55
2022-11-05T07:24:18.048Z,1009.57
2022-11-05T07:25:18.029Z,1009.57
2022-11-05T07:26:18.006Z,1009.58
2022-11-05T07:27:17.985Z,1009.61
2022-11-05T07:28:17.959Z,1009.64
2022-11-05T07:29:17.944Z,1009.62
2022-11-05T07:30:17.916Z,1009.59
2022-11-05T07:31:17.897Z,1009.60
2022-11-05T07:32:17.872Z,1009.64
2022-11-05T07:33:17.848Z,1009.66
2022-11-05T07:34:17.829Z,1009.63
2022-11-05T07:35:17.804Z,1009.68
2022-11-05T07:36:17.785Z,1009.78
2022-11-05T07:37:17.783Z,1009.74
2022-11-05T07:38:17.742Z,1009.79
2022-11-05T07:39:17.716Z,1009.74
2022-11-05T07:40:17.694Z,1009.78
2022-11-05T07:41:17.677Z,1009.74
2022-11-05T07:42:17.654Z,1009.78
2022-11-05T07:43:17.624Z,1009.80
2022-11-05T07:44:17.598Z,1009.78
2022-11-05T07:45:17.579Z,1009.80
2022-11-05T07:46:17.556Z,1009.81
2022-11-05T07:47:17.540Z,1009.80
2022-11-05T07:48:17.512Z,1009.77
2022-11-05T07:49:17.493Z,1009.78
2022-11-05T07:50:17.472Z,1009.77
2022-11-05T07:51:17.447Z,1009.81
2022-11-05T07:52:17.431Z,1009.80
2022-11-05T07:53:17.425Z,1009.80
2022-11-05T07:54:17.381Z,1009.80
2022-11-05T07:55:17.360Z,1009.78
2022-11-05T07:56:17.336Z,1009.80
2022-11-05T07:57:17.314Z,1009.82
2022-11-05T07:58:17.296Z,1009.83
2022-11-05T07:59:17.268Z,1009.81
2022-11-05T08:00:17.252Z,1009.81
2022-11-05T08:01:17.583Z,1009.83
2022-11-05T08:02:17.329Z,1009.84
2022-11-05T08:03:17.876Z,1009.85
2022-11-05T08:04:17.158Z,1009.83
2022-11-05T08:05:17.136Z,1009.85
2022-11-05T08:06:17.113Z,1009.86
2022-11-05T08:07:17.094Z,1009.83
2022-11-05T08:08:17.072Z,1009.85
2022-11-05T08:09:17.070Z,1009.84
2022-11-05T08:10:17.026Z,1009.90
2022-11-05T08:11:17.007Z,1009.84
2022-11-05T08:12:16.983Z,1009.90
2022-11-05T08:13:16.969Z,1009.92
2022-11-05T08:14:16.941Z,1009.89
2022-11-05T08:15:16.922Z,1009.92
2022-11-05T08:16:16.898Z,1009.95
2022-11-05T08:17:18.549Z,1010.01
2022-11-05T08:18:16.862Z,1009.97
2022-11-05T08:19:16.836Z,1010.00
2022-11-05T08:20:16.811Z,1009.99
2022-11-05T08:21:16.796Z,1010.04
2022-11-05T08:22:16.767Z,1010.00
2022-11-05T08:23:16.756Z,1010.02
2022-11-05T08:24:16.730Z,1010.08
2022-11-05T08:25:16.734Z,1010.02
2022-11-05T08:26:16.693Z,1010.17
2022-11-05T08:27:16.668Z,1010.12
2022-11-05T08:28:16.651Z,1010.14
2022-11-05T08:29:16.629Z,1010.18
2022-11-05T08:30:16.607Z,1010.20
2022-11-05T08:31:16.588Z,1010.18
2022-11-05T08:32:16.569Z,1010.14
2022-11-05T08:33:16.657Z,1010.22
2022-11-05T08:34:16.531Z,1010.18
2022-11-05T08:35:16.507Z,1010.25
2022-11-05T08:36:16.492Z,1010.31
2022-11-05T08:37:16.468Z,1010.57
2022-11-05T08:38:16.454Z,1010.54
2022-11-05T08:39:17.164Z,1010.62
2022-11-05T08:40:16.418Z,1010.46
2022-11-05T08:41:16.419Z,1010.53
2022-11-05T08:42:16.376Z,1010.58
2022-11-05T08:43:16.362Z,1010.41
2022-11-05T08:44:16.357Z,1010.40
2022-11-05T08:45:16.322Z,1010.65
2022-11-05T08:46:16.331Z,1010.60
2022-11-05T08:47:16.297Z,1010.67
2022-11-05T08:48:16.273Z,1010.63
2022-11-05T08:49:16.261Z,1010.79
2022-11-05T08:50:16.246Z,1010.93
2022-11-05T08:51:16.234Z,1010.99
2022-11-05T08:52:16.215Z,1010.99
2022-11-05T08:53:16.312Z,1011.02
2022-11-05T08:54:16.190Z,1010.97
2022-11-05T08:55:16.191Z,1010.95
2022-11-05T08:56:16.163Z,1010.96
2022-11-05T08:57:16.170Z,1011.06
2022-11-05T08:58:16.136Z,1011.17
2022-11-05T08:59:16.125Z,1011.21
2022-11-05T09:00:16.252Z,1010.95
2022-11-05T09:01:16.133Z,1010.94
2022-11-05T09:02:16.192Z,1010.95
2022-11-05T09:03:16.292Z,1010.92
2022-11-05T09:04:16.067Z,1010.94
2022-11-05T09:05:16.052Z,1010.94
2022-11-05T09:06:16.043Z,1010.95
2022-11-05T09:07:16.038Z,1011.05
2022-11-05T09:08:16.039Z,1011.13
2022-11-05T09:09:16.014Z,1011.18
2022-11-05T09:10:16.003Z,1011.13
2022-11-05T09:11:15.995Z,1011.05
2022-11-05T09:12:15.979Z,1011.14
2022-11-05T09:13:19.542Z,1011.16
2022-11-05T09:14:15.962Z,1011.24
2022-11-05T09:15:15.953Z,1011.20
2022-11-05T09:16:15.942Z,1011.19
2022-11-05T09:17:15.932Z,1011.19
2022-11-05T09:18:15.933Z,1011.27
2022-11-05T09:19:15.915Z,1011.32
2022-11-05T09:20:15.903Z,1011.36
2022-11-05T09:21:15.893Z,1011.33
2022-11-05T09:22:15.891Z,1011.45
2022-11-05T09:23:15.918Z,1011.41
2022-11-05T09:24:15.862Z,1011.53
2022-11-05T09:25:15.858Z,1011.50
2022-11-05T09:26:15.845Z,1011.49
2022-11-05T09:27:15.836Z,1011.57
2022-11-05T09:28:17.169Z,1011.56
2022-11-05T09:29:15.924Z,1011.57
2022-11-05T09:30:15.810Z,1011.61
2022-11-05T09:31:15.811Z,1011.49
2022-11-05T09:32:15.787Z,1011.19
2022-11-05T09:33:15.781Z,1011.57
2022-11-05T09:34:15.766Z,1011.31
2022-11-05T09:35:15.760Z,1011.60
2022-11-05T09:36:15.750Z,1011.64
2022-11-05T09:37:15.740Z,1011.62
2022-11-05T09:38:15.738Z,1011.63
2022-11-05T09:39:15.719Z,1011.62
2022-11-05T09:40:15.714Z,1011.61
2022-11-05T09:41:15.703Z,1011.61
2022-11-05T09:42:15.687Z,1011.50
2022-11-05T09:43:15.680Z,1011.51
2022-11-05T09:44:15.670Z,1011.55
2022-11-05T09:45:15.684Z,1011.69
2022-11-05T09:46:15.654Z,1011.80
2022-11-05T09:47:15.646Z,1011.86
2022-11-05T09:48:15.629Z,1011.97
2022-11-05T09:49:15.622Z,1012.09
2022-11-05T09:50:15.614Z,1012.05
2022-11-05T09:51:20.765Z,1011.98
2022-11-05T09:52:15.594Z,1012.07
2022-11-05T09:53:15.579Z,1012.16
2022-11-05T09:54:15.570Z,1012.29
2022-11-05T09:55:15.558Z,1012.23
2022-11-05T09:56:15.538Z,1012.36
2022-11-05T09:57:15.540Z,1012.48
2022-11-05T09:58:15.528Z,1012.51
2022-11-05T09:59:15.516Z,1012.45
2022-11-05T10:00:15.512Z,1012.52
2022-11-05T10:01:15.672Z,1012.50
2022-11-05T10:02:15.582Z,1012.45
2022-11-05T10:03:15.481Z,1011.57
2022-11-05T10:04:15.467Z,1011.54
2022-11-05T10:05:15.501Z,1012.23
2022-11-05T10:06:15.457Z,1012.61
2022-11-05T10:07:15.440Z,1012.45
2022-11-05T10:08:15.452Z,1012.40
2022-11-05T10:09:15.416Z,1012.43
2022-11-05T10:10:15.403Z,1012.37
2022-11-05T10:11:15.401Z,1012.37
2022-11-05T10:12:15.389Z,1012.30
2022-11-05T10:13:15.379Z,1012.31
2022-11-05T10:14:15.362Z,1012.25
2022-11-05T10:15:15.353Z,1012.26
2022-11-05T10:16:15.340Z,1012.19
2022-11-05T10:17:15.354Z,1012.16
2022-11-05T10:18:15.326Z,1012.24
2022-11-05T10:19:15.314Z,1012.18
2022-11-05T10:20:15.302Z,1012.17
2022-11-05T10:21:15.287Z,1012.27
2022-11-05T10:22:15.278Z,1012.17
2022-11-05T10:23:15.265Z,1012.21
2022-11-05T10:24:15.259Z,1012.20
2022-11-05T10:25:15.256Z,1012.19
2022-11-05T10:26:15.236Z,1012.13
2022-11-05T10:27:15.223Z,1012.14
2022-11-05T10:28:15.215Z,1012.06
2022-11-05T10:29:15.207Z,1011.96
2022-11-05T10:30:15.197Z,1011.85
2022-11-05T10:31:15.180Z,1011.43
2022-11-05T10:32:15.167Z,1011.24
2022-11-05T10:33:15.177Z,1011.01
2022-11-05T10:34:15.148Z,1011.00
2022-11-05T10:35:15.140Z,1010.93
2022-11-05T10:36:15.129Z,1010.92
2022-11-05T10:37:15.118Z,1010.94
2022-11-05T10:38:15.113Z,1010.95
2022-11-05T10:39:15.103Z,1010.97
2022-11-05T10:40:15.082Z,1010.96
2022-11-05T10:41:15.072Z,1010.97
2022-11-05T10:42:15.057Z,1010.96
2022-11-05T10:43:15.129Z,1010.98
2022-11-05T10:44:18.811Z,1011.02
2022-11-05T10:45:15.031Z,1011.04
2022-11-05T10:46:15.015Z,1011.03
2022-11-05T10:47:15.009Z,1010.99
2022-11-05T10:48:14.992Z,1010.97
2022-11-05T10:49:15.000Z,1010.93
2022-11-05T10:50:14.972Z,1010.96
2022-11-05T10:51:14.962Z,1010.91
2022-11-05T10:52:14.948Z,1010.91
2022-11-05T10:53:14.992Z,1010.92
2022-11-05T10:54:14.923Z,1010.94
2022-11-05T10:55:14.916Z,1010.92
2022-11-05T10:56:14.907Z,1010.93
2022-11-05T10:57:14.891Z,1010.91
2022-11-05T10:58:14.883Z,1010.91
2022-11-05T10:59:14.875Z,1010.93
2022-11-05T11:00:14.863Z,1010.90
2022-11-05T11:01:14.881Z,1010.96
2022-11-05T11:02:14.930Z,1010.92
2022-11-05T11:03:14.831Z,1010.92
2022-11-05T11:04:14.815Z,1010.86
2022-11-05T11:05:14.918Z,1010.88
2022-11-05T11:06:14.789Z,1010.87
2022-11-05T11:07:14.780Z,1010.86
2022-11-05T11:08:14.769Z,1010.85
2022-11-05T11:09:14.756Z,1010.80
2022-11-05T11:10:14.746Z,1010.82
2022-11-05T11:11:14.731Z,1010.84
2022-11-05T11:12:14.721Z,1010.85
2022-11-05T11:13:14.710Z,1010.80
2022-11-05T11:14:14.707Z,1010.82
2022-11-05T11:15:14.690Z,1010.87
2022-11-05T11:16:14.682Z,1010.83
2022-11-05T11:17:14.665Z,1010.89
2022-11-05T11:18:14.650Z,1010.89
2022-11-05T11:19:14.641Z,1010.86
2022-11-05T11:20:14.633Z,1010.86
2022-11-05T11:21:14.642Z,1010.86
2022-11-05T11:22:14.607Z,1010.88
2022-11-05T11:23:15.251Z,1010.86
2022-11-05T11:24:14.590Z,1010.80
2022-11-05T11:25:14.575Z,1010.91
2022-11-05T11:26:14.567Z,1010.77
2022-11-05T11:27:14.550Z,1010.83
2022-11-05T11:28:14.538Z,1010.77
2022-11-05T11:29:14.534Z,1010.78
2022-11-05T11:30:14.510Z,1010.78
2022-11-05T11:31:14.503Z,1010.78
2022-11-05T11:32:14.490Z,1010.82
2022-11-05T11:33:14.806Z,1010.79
2022-11-05T11:34:14.455Z,1010.75
2022-11-05T11:35:14.451Z,1010.79
2022-11-05T11:36:14.435Z,1010.77
2022-11-05T11:37:19.201Z,1010.74
2022-11-05T11:38:14.414Z,1010.73
2022-11-05T11:39:14.396Z,1010.72
2022-11-05T11:40:14.390Z,1010.75
2022-11-05T11:41:14.369Z,1010.72
2022-11-05T11:42:14.356Z,1010.75
2022-11-05T11:43:14.523Z,1010.82
2022-11-05T11:44:14.330Z,1010.81
2022-11-05T11:45:14.314Z,1010.85
2022-11-05T11:46:15.216Z,1010.84
2022-11-05T11:47:14.292Z,1010.82
2022-11-05T11:48:14.271Z,1010.76
2022-11-05T11:49:14.271Z,1010.80
2022-11-05T11:50:14.240Z,1010.75
2022-11-05T11:51:14.239Z,1010.79
2022-11-05T11:52:14.218Z,1010.81
2022-11-05T11:53:14.334Z,1010.77
2022-11-05T11:54:14.194Z,1010.80
2022-11-05T11:55:14.182Z,1010.76
2022-11-05T11:56:14.165Z,1010.77
2022-11-05T11:57:15.240Z,1010.78
2022-11-05T11:58:14.132Z,1010.83
2022-11-05T11:59:14.145Z,1010.71
2022-11-05T12:00:14.119Z,1010.75
2022-11-05T12:01:14.101Z,1010.77
2022-11-05T12:02:14.199Z,1010.74
2022-11-05T12:03:14.626Z,1010.76
2022-11-05T12:04:14.055Z,1010.75
2022-11-05T12:05:14.046Z,1010.72